x

Buoy I01 - Eastern Maine Shelf (44034) Wave Buoy

10:04 - Sat 23rd Jul 2016 All times are EDT. -4 hours from GMT.

  • Sig Wave height 3.6ft
  • Peak Period 6s
  • Wind
    7mph, 9mph gusts
  • Sea Temp 56°f
  • Air Temp 59°f
  • Sea Pressure 1006.3mb
  • Buoy I01 - Eastern Maine Shelf
  • Buoy I01 - Eastern Maine Shelf

More Historic Weather Station data

Upgrade to MSW Pro to gain access to the past 30 days of data for over 8000 Wavebouys and Weather Stations around the globe.

Join Pro

Comparision Forecast

View Surf forecast
   
sam. 07/23 10:04 3.5ft 6s 7 9 mph 1006.3mb 56f 59f
9:04 4ft 6s 11 13 mph 1006.5mb 56f 59f
8:04 3.5ft 6s 7 9 mph 1006.2mb 56f 61f
7:04 4.5ft 8s 2 4 mph 1005.6mb 56f 59f
6:04 4.5ft 8s 4 7 mph 1005.2mb 55f 58f
5:04 4ft 8s 4 7 mph 1004.6mb 55f 61f
4:04 4.5ft 8s 13 18 mph 1005.1mb 55f 60f
3:04 5ft 8s 7 9 mph 1004.9mb 56f 58f
2:04 4.5ft 6s 7 9 mph 1004.8mb 56f 60f
1:04 5ft 8s 9 13 mph 1004.9mb 56f 61f
12:04 6ft 8s 7 11 mph 1004.9mb 56f 59f
ven. 07/22 11:04 5ft 6s 7 9 mph 1005.2mb 56f 62f
10:04 5ft 6s 9 11 mph 1005.1mb 55f 60f
9:04 5ft 5s 9 11 mph 1005.1mb 56f 59f
8:04 4.5ft 6s 9
mph
1004.5mb 55f 58f
7:04 5.5ft 6s 11
mph
1004.5mb 55f 60f
6:04 5ft 6s 13 16 mph 1004.5mb 55f 61f
5:04 5ft 6s 9 11 mph 1004.8mb 55f 60f
4:04 5ft 6s 9 11 mph 1005.4mb 55f 60f
3:04 4.5ft 6s 13 16 mph 1005.7mb 55f 60f
2:04 4.5ft 6s 11 13 mph 1006mb 55f 60f
1:04 5ft 6s 16 18 mph 1006.6mb 55f 60f
12:04 4.5ft 5s 16 18 mph 1007.4mb 55f 60f
11:04 4ft 5s 16
mph
1007.8mb 55f 59f
10:04 3.5ft 5s 16 18 mph 1008.2mb 55f 59f
9:04 3ft 5s 18 20 mph 1008.9mb 55f 60f
8:04 3.5ft 5s 16 18 mph 1009.7mb 55f 59f
7:04 3ft 5s 16 18 mph 1010mb 55f 60f
6:04 2.5ft 5s 16 18 mph 1010.1mb 55f 60f
5:04 2.5ft 5s 9 11 mph 1010.3mb 55f 58f
4:04 2ft 4s 13 16 mph 1010.6mb 55f 59f
3:04 1.6ft 4s 9
mph
1011.1mb 55f 58f
2:04 2.5ft 4s 11 16 mph 1011.7mb 55f 59f
1:04 2ft 4s 11 13 mph 1012.2mb 55f 59f
12:04 2ft 4s 13 16 mph 1013mb 55f 59f
jeu. 07/21 11:04 2ft 4s 11 13 mph 1013.9mb 55f 59f
10:04 2ft 3s 13
mph
1014.4mb 54f 59f
9:04 1.6ft 4s 11 13 mph 1014.5mb 54f 59f
8:04 1.3ft 4s 11 13 mph 1014.9mb 54f 58f
7:04 2ft 8s 9 11 mph 1015.1mb 55f 58f
6:04 1.6ft 5s 11
mph
1015.8mb 55f 59f
5:04 1.6ft 5s 11 13 mph 1015.8mb 55f 59f
4:04 1.3ft 6s 11 13 mph 1016.2mb 54f 60f
3:04 1.6ft 6s 9 11 mph 1016mb 55f 59f
2:04 1.3ft 6s 11
mph
1016.3mb 55f 59f
1:04 1.3ft 6s 9
mph
1017.2mb 55f 59f
12:04 1.3ft 8s 9 11 mph 1017.8mb 55f 59f
11:04 1.3ft 6s 9 11 mph 1018.4mb 54f 58f
10:04 1.3ft 6s 13
mph
1018.7mb 54f 58f
9:04 1.3ft 6s 11 13 mph 1018.3mb 54f 57f
8:04 1.6ft 8s 9 11 mph 1019mb 54f 58f
7:04 1ft 4s 9 11 mph 1018.7mb 54f 57f
5:04 1.6ft 5s 7
mph
1017.6mb 54f 58f
4:04 2ft 6s 7
mph
1017.5mb 55f 58f
3:04 2ft 6s 4 7 mph 1018mb 55f 57f
2:04 2.5ft 6s 9 11 mph 1018mb 55f 59f
1:04 2.5ft 5s 7 9 mph 1017.8mb 55f 60f
12:04 2.5ft 6s 9
mph
1017.5mb 55f 62f
mer. 07/20 11:04 2.5ft 5s 7
mph
1017.7mb 55f 60f
10:04 2.5ft 5s 7
mph
1017.5mb 54f 60f
9:04 2.5ft 5s 4 7 mph 1017.3mb 54f 59f
8:04 2.5ft 5s 9 11 mph 1016.8mb 54f 62f
7:04 2.5ft 5s 9 11 mph 1016.2mb 54f 58f
6:04 2.5ft 4s 11 13 mph 1015.6mb 54f 59f
5:04 2.5ft 5s 9 11 mph 1015.9mb 55f 59f
4:04 2.5ft 6s 16 18 mph 1016mb 54f 59f
3:04 2.5ft 4s 13 16 mph 1016.3mb 54f 59f
2:04 2.5ft 4s 16 18 mph 1016.7mb 54f 59f
1:04 2.5ft 4s 16 18 mph 1016.8mb 54f 59f
12:04 2ft 4s 16 18 mph 1017.5mb 54f 59f
11:04 2ft 6s 13 16 mph 1017.9mb 54f 58f
10:04 1.6ft 4s 13 16 mph 1018.1mb 54f 58f
9:04 1.6ft 3s 13 16 mph 1018.4mb 54f 58f
8:04 1.6ft 3s 13 16 mph 1018.4mb 54f 58f
7:04 2ft 5s 11 13 mph 1018.2mb 54f 58f
6:04 2ft 5s 11 13 mph 1018.1mb 54f 58f
5:04 1.6ft 5s 4
mph
1018.2mb 55f 57f
4:04 1.6ft 5s 9 11 mph 1017.9mb 54f 57f
3:04 2ft 6s 11 13 mph 1017.6mb 54f 58f
2:04 1.6ft 5s 7 9 mph 1017.3mb 53f 57f
1:04 1.6ft 5s 7 9 mph 1017.3mb 56f 58f
12:04 1.6ft 6s 7
mph
1017.4mb 56f 59f
mar. 07/19 11:04 1.6ft 6s 4 7 mph 1017.5mb 56f 59f
10:04 1.6ft 5s 9 11 mph 1016.9mb 56f 61f
9:04 1.6ft 5s 7
mph
1016.5mb 56f 60f
8:04 2ft 5s 9 11 mph 1015.9mb 56f 59f
7:04 2ft 5s 11 16 mph 1015.4mb 56f 61f
6:04 2ft 6s 11 13 mph 1015mb 56f 61f
5:04 2ft 6s 7 9 mph 1014.8mb 56f 64f
4:04 2.5ft 6s 9
mph
1014.9mb 57f 63f